PWSweather.com
Personal Weather Stations
Station Observations
GEELONGWX1
Bell Post Hill, GeelongAU

Bell Post HillGeelongAU

Lat: -38.101, Lon: 144.326

Elevation: 204

Station Type: Davis Vantage Pro2

http://www.geelongweather.com

High Low Average
Temperature 107.1°F41.7°C 76.9°F24.9°C 94.2°F34.6°C
Dew Point 64.3°F17.9°C 50.9°F10.5°C 54.7°F12.6°C
Winds 12.7 mph 20.4 kmh Calm Calm 4.0 mph SSE6.4 kmh SSE
Wind Gusts 17.3 mph27.8 kmh -- 6.0 mph9.7 kmh
Humidity 59% 16% 29%
Pressure 30.18 in1022.0 mb 30.07 in1018.3 mb -
Precipitation 0.00 in0.0 mm - -
Hour Temp Dew Point Humidity Winds Wind Gusts Pressure Precip Precip Rate Daily Precip Total
12:00 AM 76.9°F24.9°C 55.1°F12.8°C 47% Calm Calm -- 30.11 in1019.6 mb - 0.00 in0.0 mm 0.00 in0.0 mm
12:10 AM 76.8°F24.9°C 55.6°F13.1°C 48% Calm Calm -- 30.10 in1019.3 mb - 0.00 in0.0 mm 0.00 in0.0 mm
12:20 AM 76.9°F24.9°C 55.7°F13.2°C 48% Calm Calm -- 30.10 in1019.3 mb - 0.00 in0.0 mm 0.00 in0.0 mm
12:30 AM 77.0°F25.0°C 55.8°F13.2°C 48% Calm Calm -- 30.10 in1019.3 mb - 0.00 in0.0 mm 0.00 in0.0 mm
12:40 AM 77.0°F25.0°C 55.8°F13.2°C 48% Calm Calm -- 30.10 in1019.3 mb - 0.00 in0.0 mm 0.00 in0.0 mm
12:50 AM 76.9°F24.9°C 55.7°F13.2°C 48% Calm Calm -- 30.10 in1019.3 mb - 0.00 in0.0 mm 0.00 in0.0 mm
01:00 AM 76.8°F24.9°C 55.0°F12.8°C 47% Calm Calm -- 30.10 in1019.3 mb - 0.00 in0.0 mm 0.00 in0.0 mm
01:10 AM 76.6°F24.8°C 54.9°F12.7°C 47% Calm Calm -- 30.10 in1019.3 mb - 0.00 in0.0 mm 0.00 in0.0 mm
01:20 AM 76.5°F24.7°C 55.3°F12.9°C 48% Calm Calm -- 30.10 in1019.3 mb - 0.00 in0.0 mm 0.00 in0.0 mm
01:30 AM 76.3°F24.6°C 55.2°F12.9°C 48% Calm Calm -- 30.10 in1019.3 mb - 0.00 in0.0 mm 0.00 in0.0 mm
01:40 AM 76.2°F24.6°C 55.1°F12.8°C 48% Calm Calm -- 30.09 in1019.0 mb - 0.00 in0.0 mm 0.00 in0.0 mm
01:50 AM 75.9°F24.4°C 55.4°F13.0°C 49% Calm Calm -- 30.09 in1019.0 mb - 0.00 in0.0 mm 0.00 in0.0 mm
02:00 AM 75.7°F24.3°C 55.2°F12.9°C 49% Calm Calm -- 30.10 in1019.3 mb - 0.00 in0.0 mm 0.00 in0.0 mm
02:10 AM 75.5°F24.2°C 56.1°F13.4°C 51% Calm Calm -- 30.09 in1019.0 mb - 0.00 in0.0 mm 0.00 in0.0 mm
02:20 AM 75.3°F24.1°C 55.4°F13.0°C 50% Calm Calm -- 30.09 in1019.0 mb - 0.00 in0.0 mm 0.00 in0.0 mm
02:30 AM 75.1°F23.9°C 55.2°F12.9°C 50% Calm Calm -- 30.09 in1019.0 mb - 0.00 in0.0 mm 0.00 in0.0 mm
02:40 AM 75.0°F23.9°C 55.1°F12.8°C 50% Calm Calm -- 30.09 in1019.0 mb - 0.00 in0.0 mm 0.00 in0.0 mm
02:50 AM 74.9°F23.8°C 55.6°F13.1°C 51% Calm Calm -- 30.09 in1019.0 mb - 0.00 in0.0 mm 0.00 in0.0 mm
03:00 AM 74.8°F23.8°C 55.5°F13.1°C 51% Calm Calm -- 30.09 in1019.0 mb - 0.00 in0.0 mm 0.00 in0.0 mm
03:10 AM 74.7°F23.7°C 55.9°F13.3°C 52% Calm Calm -- 30.09 in1019.0 mb - 0.00 in0.0 mm 0.00 in0.0 mm
03:20 AM 74.6°F23.7°C 56.3°F13.5°C 53% Calm Calm -- 30.09 in1019.0 mb - 0.00 in0.0 mm 0.00 in0.0 mm
03:30 AM 74.6°F23.7°C 56.3°F13.5°C 53% Calm Calm -- 30.09 in1019.0 mb - 0.00 in0.0 mm 0.00 in0.0 mm
03:40 AM 74.5°F23.6°C 57.3°F14.1°C 55% Calm Calm -- 30.09 in1019.0 mb - 0.00 in0.0 mm 0.00 in0.0 mm
03:50 AM 74.4°F23.6°C 57.7°F14.3°C 56% Calm Calm -- 30.10 in1019.3 mb - 0.00 in0.0 mm 0.00 in0.0 mm
04:00 AM 74.3°F23.5°C 57.6°F14.2°C 56% Calm Calm -- 30.10 in1019.3 mb - 0.00 in0.0 mm 0.00 in0.0 mm
04:10 AM 74.3°F23.5°C 58.1°F14.5°C 57% Calm Calm -- 30.10 in1019.3 mb - 0.00 in0.0 mm 0.00 in0.0 mm
04:20 AM 74.2°F23.4°C 57.5°F14.2°C 56% Calm Calm -- 30.10 in1019.3 mb - 0.00 in0.0 mm 0.00 in0.0 mm
04:30 AM 74.1°F23.4°C 56.4°F13.6°C 54% Calm Calm -- 30.10 in1019.3 mb - 0.00 in0.0 mm 0.00 in0.0 mm
04:40 AM 74.0°F23.3°C 55.8°F13.2°C 53% Calm Calm -- 30.11 in1019.6 mb - 0.00 in0.0 mm 0.00 in0.0 mm
04:50 AM 73.9°F23.3°C 55.7°F13.2°C 53% Calm Calm -- 30.11 in1019.6 mb - 0.00 in0.0 mm 0.00 in0.0 mm
05:00 AM 73.7°F23.2°C 55.0°F12.8°C 52% Calm Calm -- 30.11 in1019.6 mb - 0.00 in0.0 mm 0.00 in0.0 mm
05:10 AM 73.6°F23.1°C 54.9°F12.7°C 52% Calm Calm -- 30.11 in1019.6 mb - 0.00 in0.0 mm 0.00 in0.0 mm
05:20 AM 73.5°F23.1°C 55.8°F13.2°C 54% Calm Calm -- 30.11 in1019.6 mb - 0.00 in0.0 mm 0.00 in0.0 mm
05:30 AM 73.4°F23.0°C 54.7°F12.6°C 52% Calm Calm -- 30.11 in1019.6 mb - 0.00 in0.0 mm 0.00 in0.0 mm
05:40 AM 73.3°F22.9°C 55.1°F12.8°C 53% Calm Calm -- 30.12 in1020.0 mb - 0.00 in0.0 mm 0.00 in0.0 mm
05:50 AM 73.2°F22.9°C 55.6°F13.1°C 54% Calm Calm -- 30.12 in1020.0 mb - 0.00 in0.0 mm 0.00 in0.0 mm
06:00 AM 73.1°F22.8°C 55.5°F13.1°C 54% Calm Calm -- 30.13 in1020.3 mb - 0.00 in0.0 mm 0.00 in0.0 mm
06:10 AM 73.0°F22.8°C 55.9°F13.3°C 55% Calm Calm -- 30.13 in1020.3 mb - 0.00 in0.0 mm 0.00 in0.0 mm
06:20 AM 73.0°F22.8°C 56.8°F13.8°C 57% Calm Calm -- 30.14 in1020.7 mb - 0.00 in0.0 mm 0.00 in0.0 mm
06:30 AM 72.9°F22.7°C 57.3°F14.1°C 58% Calm Calm -- 30.14 in1020.7 mb - 0.00 in0.0 mm 0.00 in0.0 mm
06:40 AM 72.9°F22.7°C 57.7°F14.3°C 59% Calm Calm -- 30.14 in1020.7 mb - 0.00 in0.0 mm 0.00 in0.0 mm
06:50 AM 73.0°F22.8°C 57.8°F14.3°C 59% Calm Calm -- 30.14 in1020.7 mb - 0.00 in0.0 mm 0.00 in0.0 mm
07:00 AM 73.2°F22.9°C 55.6°F13.1°C 54% Calm Calm -- 30.15 in1021.0 mb - 0.00 in0.0 mm 0.00 in0.0 mm
07:10 AM 73.7°F23.2°C 55.0°F12.8°C 52% Calm Calm -- 30.15 in1021.0 mb - 0.00 in0.0 mm 0.00 in0.0 mm
07:20 AM 74.3°F23.5°C 54.4°F12.4°C 50% Calm Calm -- 30.15 in1021.0 mb - 0.00 in0.0 mm 0.00 in0.0 mm
07:30 AM 74.9°F23.8°C 53.9°F12.2°C 48% Calm Calm -- 30.16 in1021.3 mb - 0.00 in0.0 mm 0.00 in0.0 mm
07:40 AM 75.6°F24.2°C 53.9°F12.2°C 47% Calm Calm -- 30.16 in1021.3 mb - 0.00 in0.0 mm 0.00 in0.0 mm
07:50 AM 76.3°F24.6°C 54.0°F12.2°C 46% Calm Calm -- 30.16 in1021.3 mb - 0.00 in0.0 mm 0.00 in0.0 mm
08:00 AM 76.8°F24.9°C 53.8°F12.1°C 45% Calm Calm -- 30.16 in1021.3 mb - 0.00 in0.0 mm 0.00 in0.0 mm
08:10 AM 77.3°F25.2°C 54.3°F12.4°C 45% Calm Calm -- 30.16 in1021.3 mb - 0.00 in0.0 mm 0.00 in0.0 mm
08:20 AM 77.8°F25.4°C 53.5°F11.9°C 43% Calm Calm -- 30.17 in1021.7 mb - 0.00 in0.0 mm 0.00 in0.0 mm
08:30 AM 78.2°F25.7°C 54.5°F12.5°C 44% Calm Calm -- 30.17 in1021.7 mb - 0.00 in0.0 mm 0.00 in0.0 mm
08:40 AM 78.7°F25.9°C 54.3°F12.4°C 43% Calm Calm -- 30.17 in1021.7 mb - 0.00 in0.0 mm 0.00 in0.0 mm
08:50 AM 78.9°F26.1°C 55.1°F12.8°C 44% Calm Calm -- 30.17 in1021.7 mb - 0.00 in0.0 mm 0.00 in0.0 mm
09:00 AM 79.5°F26.4°C 55.0°F12.8°C 43% Calm Calm -- 30.17 in1021.7 mb - 0.00 in0.0 mm 0.00 in0.0 mm
09:10 AM 80.1°F26.7°C 54.3°F12.4°C 41% Calm Calm -- 30.17 in1021.7 mb - 0.00 in0.0 mm 0.00 in0.0 mm
09:20 AM 81.0°F27.2°C 53.7°F12.1°C 39% Calm Calm -- 30.18 in1022.0 mb - 0.00 in0.0 mm 0.00 in0.0 mm
09:30 AM 82.2°F27.9°C 56.8°F13.8°C 42% Calm Calm -- 30.18 in1022.0 mb - 0.00 in0.0 mm 0.00 in0.0 mm
09:40 AM 84.0°F28.9°C 55.7°F13.2°C 38% Calm Calm -- 30.18 in1022.0 mb - 0.00 in0.0 mm 0.00 in0.0 mm
09:50 AM 87.2°F30.7°C 54.6°F12.6°C 33% 2.3 mph N3.7 kmh N 3.5 mph5.6 kmh 30.18 in1022.0 mb - 0.00 in0.0 mm 0.00 in0.0 mm
10:00 AM 90.5°F32.5°C 53.9°F12.2°C 29% Calm Calm -- 30.18 in1022.0 mb - 0.00 in0.0 mm 0.00 in0.0 mm
10:10 AM 93.0°F33.9°C 54.1°F12.3°C 27% Calm Calm -- 30.18 in1022.0 mb - 0.00 in0.0 mm 0.00 in0.0 mm
10:20 AM 95.1°F35.1°C 55.9°F13.3°C 27% Calm Calm -- 30.17 in1021.7 mb - 0.00 in0.0 mm 0.00 in0.0 mm
10:30 AM 97.3°F36.3°C 55.6°F13.1°C 25% 1.2 mph N1.9 kmh N 4.6 mph7.4 kmh 30.17 in1021.7 mb - 0.00 in0.0 mm 0.00 in0.0 mm
10:40 AM 99.1°F37.3°C 53.6°F12.0°C 22% 4.6 mph N7.4 kmh N 8.1 mph13.0 kmh 30.17 in1021.7 mb - 0.00 in0.0 mm 0.00 in0.0 mm
10:50 AM 100.4°F38.0°C 54.6°F12.6°C 22% 5.8 mph S9.3 kmh S 6.9 mph11.1 kmh 30.16 in1021.3 mb - 0.00 in0.0 mm 0.00 in0.0 mm
11:00 AM 101.4°F38.6°C 54.2°F12.3°C 21% 2.3 mph SW3.7 kmh SW 6.9 mph11.1 kmh 30.16 in1021.3 mb - 0.00 in0.0 mm 0.00 in0.0 mm
11:10 AM 102.4°F39.1°C 52.3°F11.3°C 19% 3.5 mph NW5.6 kmh NW 3.5 mph5.6 kmh 30.16 in1021.3 mb - 0.00 in0.0 mm 0.00 in0.0 mm
11:20 AM 103.3°F39.6°C 53.0°F11.7°C 19% 5.8 mph S9.3 kmh S 5.8 mph9.3 kmh 30.16 in1021.3 mb - 0.00 in0.0 mm 0.00 in0.0 mm
11:30 AM 103.6°F39.8°C 53.3°F11.8°C 19% 6.9 mph WSW11.1 kmh WSW 11.5 mph18.5 kmh 30.15 in1021.0 mb - 0.00 in0.0 mm 0.00 in0.0 mm
11:40 AM 103.6°F39.8°C 53.3°F11.8°C 19% 2.3 mph NW3.7 kmh NW 3.5 mph5.6 kmh 30.15 in1021.0 mb - 0.00 in0.0 mm 0.00 in0.0 mm
11:50 AM 103.5°F39.7°C 51.7°F10.9°C 18% 4.6 mph SW7.4 kmh SW 8.1 mph13.0 kmh 30.15 in1021.0 mb - 0.00 in0.0 mm 0.00 in0.0 mm
12:00 PM 103.4°F39.7°C 53.1°F11.7°C 19% 8.1 mph WSW13.0 kmh WSW 9.2 mph14.8 kmh 30.14 in1020.7 mb - 0.00 in0.0 mm 0.00 in0.0 mm
12:10 PM 103.8°F39.9°C 53.4°F11.9°C 19% 1.2 mph NW1.9 kmh NW 9.2 mph14.8 kmh 30.14 in1020.7 mb - 0.00 in0.0 mm 0.00 in0.0 mm
12:20 PM 104.2°F40.1°C 53.7°F12.1°C 19% 4.6 mph SW7.4 kmh SW 9.2 mph14.8 kmh 30.13 in1020.3 mb - 0.00 in0.0 mm 0.00 in0.0 mm
12:30 PM 104.6°F40.3°C 52.6°F11.4°C 18% 8.1 mph SW13.0 kmh SW 11.5 mph18.5 kmh 30.13 in1020.3 mb - 0.00 in0.0 mm 0.00 in0.0 mm
12:40 PM 104.5°F40.3°C 52.5°F11.4°C 18% 6.9 mph WSW11.1 kmh WSW 11.5 mph18.5 kmh 30.13 in1020.3 mb - 0.00 in0.0 mm 0.00 in0.0 mm
12:50 PM 104.4°F40.2°C 52.4°F11.3°C 18% 3.5 mph SW5.6 kmh SW 6.9 mph11.1 kmh 30.13 in1020.3 mb - 0.00 in0.0 mm 0.00 in0.0 mm
01:00 PM 104.8°F40.4°C 52.8°F11.6°C 18% 3.5 mph SE5.6 kmh SE 4.6 mph7.4 kmh 30.12 in1020.0 mb - 0.00 in0.0 mm 0.00 in0.0 mm
01:10 PM 105.4°F40.8°C 53.2°F11.8°C 18% 3.5 mph WSW5.6 kmh WSW 4.6 mph7.4 kmh 30.12 in1020.0 mb - 0.00 in0.0 mm 0.00 in0.0 mm
01:20 PM 105.9°F41.1°C 52.1°F11.2°C 17% 5.8 mph W9.3 kmh W 5.8 mph9.3 kmh 30.12 in1020.0 mb - 0.00 in0.0 mm 0.00 in0.0 mm
01:30 PM 106.6°F41.4°C 52.6°F11.4°C 17% 3.5 mph WSW5.6 kmh WSW 4.6 mph7.4 kmh 30.11 in1019.6 mb - 0.00 in0.0 mm 0.00 in0.0 mm
01:40 PM 107.1°F41.7°C 54.6°F12.6°C 18% 1.2 mph WNW1.9 kmh WNW 3.5 mph5.6 kmh 30.11 in1019.6 mb - 0.00 in0.0 mm 0.00 in0.0 mm
01:50 PM 106.9°F41.6°C 51.3°F10.7°C 16% 3.5 mph N5.6 kmh N 5.8 mph9.3 kmh 30.11 in1019.6 mb - 0.00 in0.0 mm 0.00 in0.0 mm
02:00 PM 106.0°F41.1°C 53.7°F12.1°C 18% 3.5 mph NNE5.6 kmh NNE 8.1 mph13.0 kmh 30.10 in1019.3 mb - 0.00 in0.0 mm 0.00 in0.0 mm
02:10 PM 104.2°F40.1°C 53.7°F12.1°C 19% 4.6 mph NE7.4 kmh NE 6.9 mph11.1 kmh 30.10 in1019.3 mb - 0.00 in0.0 mm 0.00 in0.0 mm
02:20 PM 103.2°F39.6°C 55.7°F13.2°C 21% 8.1 mph NE13.0 kmh NE 11.5 mph18.5 kmh 30.10 in1019.3 mb - 0.00 in0.0 mm 0.00 in0.0 mm
02:30 PM 102.6°F39.2°C 55.2°F12.9°C 21% 6.9 mph NE11.1 kmh NE 9.2 mph14.8 kmh 30.09 in1019.0 mb - 0.00 in0.0 mm 0.00 in0.0 mm
02:40 PM 102.2°F39.0°C 54.9°F12.7°C 21% 5.8 mph NE9.3 kmh NE 8.1 mph13.0 kmh 30.09 in1019.0 mb - 0.00 in0.0 mm 0.00 in0.0 mm
02:50 PM 101.9°F38.8°C 54.6°F12.6°C 21% 6.9 mph NE11.1 kmh NE 8.1 mph13.0 kmh 30.09 in1019.0 mb - 0.00 in0.0 mm 0.00 in0.0 mm
03:00 PM 101.0°F38.3°C 56.4°F13.6°C 23% 6.9 mph NE11.1 kmh NE 9.2 mph14.8 kmh 30.09 in1019.0 mb - 0.00 in0.0 mm 0.00 in0.0 mm
03:10 PM 100.5°F38.1°C 54.7°F12.6°C 22% 5.8 mph NNE9.3 kmh NNE 8.1 mph13.0 kmh 30.08 in1018.6 mb - 0.00 in0.0 mm 0.00 in0.0 mm
03:20 PM 100.4°F38.0°C 52.0°F11.1°C 20% 8.1 mph NNE13.0 kmh NNE 10.4 mph16.7 kmh 30.09 in1019.0 mb - 0.00 in0.0 mm 0.00 in0.0 mm
03:30 PM 98.5°F36.9°C 54.3°F12.4°C 23% 5.8 mph NE9.3 kmh NE 11.5 mph18.5 kmh 30.08 in1018.6 mb - 0.00 in0.0 mm 0.00 in0.0 mm
03:40 PM 96.8°F36.0°C 56.2°F13.4°C 26% 4.6 mph NE7.4 kmh NE 6.9 mph11.1 kmh 30.08 in1018.6 mb - 0.00 in0.0 mm 0.00 in0.0 mm
03:50 PM 95.1°F35.1°C 55.8°F13.2°C 27% 4.6 mph NE7.4 kmh NE 5.8 mph9.3 kmh 30.08 in1018.6 mb - 0.00 in0.0 mm 0.00 in0.0 mm
04:00 PM 94.4°F34.7°C 56.3°F13.5°C 28% 5.8 mph NNE9.3 kmh NNE 8.1 mph13.0 kmh 30.08 in1018.6 mb - 0.00 in0.0 mm 0.00 in0.0 mm
04:10 PM 94.9°F34.9°C 55.7°F13.2°C 27% 3.5 mph NE5.6 kmh NE 8.1 mph13.0 kmh 30.07 in1018.3 mb - 0.00 in0.0 mm 0.00 in0.0 mm
04:20 PM 95.8°F35.4°C 56.4°F13.6°C 27% 5.8 mph NE9.3 kmh NE 6.9 mph11.1 kmh 30.07 in1018.3 mb - 0.00 in0.0 mm 0.00 in0.0 mm
04:30 PM 96.4°F35.8°C 52.6°F11.4°C 23% 5.8 mph NE9.3 kmh NE 6.9 mph11.1 kmh 30.07 in1018.3 mb - 0.00 in0.0 mm 0.00 in0.0 mm
04:40 PM 97.0°F36.1°C 51.8°F11.0°C 22% 8.1 mph N13.0 kmh N 11.5 mph18.5 kmh 30.07 in1018.3 mb - 0.00 in0.0 mm 0.00 in0.0 mm
04:50 PM 97.2°F36.2°C 53.2°F11.8°C 23% 4.6 mph NE7.4 kmh NE 8.1 mph13.0 kmh 30.07 in1018.3 mb - 0.00 in0.0 mm 0.00 in0.0 mm
05:00 PM 97.1°F36.2°C 53.1°F11.7°C 23% 4.6 mph NNE7.4 kmh NNE 10.4 mph16.7 kmh 30.07 in1018.3 mb - 0.00 in0.0 mm 0.00 in0.0 mm
05:10 PM 96.9°F36.1°C 51.8°F11.0°C 22% 4.6 mph NNE7.4 kmh NNE 8.1 mph13.0 kmh 30.08 in1018.6 mb - 0.00 in0.0 mm 0.00 in0.0 mm
05:20 PM 96.6°F35.9°C 51.5°F10.8°C 22% 6.9 mph NNE11.1 kmh NNE 9.2 mph14.8 kmh 30.08 in1018.6 mb - 0.00 in0.0 mm 0.00 in0.0 mm
05:30 PM 96.2°F35.7°C 51.2°F10.7°C 22% 4.6 mph NNE7.4 kmh NNE 8.1 mph13.0 kmh 30.08 in1018.6 mb - 0.00 in0.0 mm 0.00 in0.0 mm
05:40 PM 95.7°F35.4°C 52.0°F11.1°C 23% 5.8 mph NNE9.3 kmh NNE 10.4 mph16.7 kmh 30.08 in1018.6 mb - 0.00 in0.0 mm 0.00 in0.0 mm
05:50 PM 95.2°F35.1°C 52.7°F11.5°C 24% 5.8 mph N9.3 kmh N 10.4 mph16.7 kmh 30.07 in1018.3 mb - 0.00 in0.0 mm 0.00 in0.0 mm
06:00 PM 94.7°F34.8°C 52.3°F11.3°C 24% 4.6 mph N7.4 kmh N 9.2 mph14.8 kmh 30.08 in1018.6 mb - 0.00 in0.0 mm 0.00 in0.0 mm
06:10 PM 94.4°F34.7°C 50.9°F10.5°C 23% 4.6 mph NNE7.4 kmh NNE 4.6 mph7.4 kmh 30.08 in1018.6 mb - 0.00 in0.0 mm 0.00 in0.0 mm
06:20 PM 94.0°F34.4°C 51.7°F10.9°C 24% 4.6 mph NNE7.4 kmh NNE 6.9 mph11.1 kmh 30.08 in1018.6 mb - 0.00 in0.0 mm 0.00 in0.0 mm
06:30 PM 93.5°F34.2°C 52.4°F11.3°C 25% 6.9 mph NNE11.1 kmh NNE 9.2 mph14.8 kmh 30.08 in1018.6 mb - 0.00 in0.0 mm 0.00 in0.0 mm
06:40 PM 92.8°F33.8°C 52.9°F11.6°C 26% 4.6 mph N7.4 kmh N 5.8 mph9.3 kmh 30.09 in1019.0 mb - 0.00 in0.0 mm 0.00 in0.0 mm
06:50 PM 92.2°F33.4°C 53.4°F11.9°C 27% 12.7 mph N20.4 kmh N 17.3 mph27.8 kmh 30.10 in1019.3 mb - 0.00 in0.0 mm 0.00 in0.0 mm
07:00 PM 91.6°F33.1°C 54.8°F12.7°C 29% 4.6 mph N7.4 kmh N 9.2 mph14.8 kmh 30.11 in1019.6 mb - 0.00 in0.0 mm 0.00 in0.0 mm
07:10 PM 90.9°F32.7°C 56.0°F13.3°C 31% 5.8 mph N9.3 kmh N 11.5 mph18.5 kmh 30.11 in1019.6 mb - 0.00 in0.0 mm 0.00 in0.0 mm
07:20 PM 90.1°F32.3°C 56.3°F13.5°C 32% 4.6 mph N7.4 kmh N 8.1 mph13.0 kmh 30.11 in1019.6 mb - 0.00 in0.0 mm 0.00 in0.0 mm
07:30 PM 89.5°F31.9°C 54.9°F12.7°C 31% 3.5 mph NNW5.6 kmh NNW 8.1 mph13.0 kmh 30.11 in1019.6 mb - 0.00 in0.0 mm 0.00 in0.0 mm
07:40 PM 89.2°F31.8°C 53.7°F12.1°C 30% 3.5 mph N5.6 kmh N 8.1 mph13.0 kmh 30.12 in1020.0 mb - 0.00 in0.0 mm 0.00 in0.0 mm
07:50 PM 89.0°F31.7°C 53.5°F11.9°C 30% 3.5 mph NW5.6 kmh NW 8.1 mph13.0 kmh 30.12 in1020.0 mb - 0.00 in0.0 mm 0.00 in0.0 mm
08:00 PM 88.8°F31.6°C 53.4°F11.9°C 30% 2.3 mph NW3.7 kmh NW 3.5 mph5.6 kmh 30.12 in1020.0 mb - 0.00 in0.0 mm 0.00 in0.0 mm
08:10 PM 88.5°F31.4°C 53.1°F11.7°C 30% 2.3 mph NNE3.7 kmh NNE 3.5 mph5.6 kmh 30.13 in1020.3 mb - 0.00 in0.0 mm 0.00 in0.0 mm
08:20 PM 88.0°F31.1°C 59.2°F15.1°C 38% 3.5 mph NNE5.6 kmh NNE 6.9 mph11.1 kmh 30.13 in1020.3 mb - 0.00 in0.0 mm 0.00 in0.0 mm
08:30 PM 87.0°F30.6°C 54.4°F12.4°C 33% 3.5 mph NW5.6 kmh NW 8.1 mph13.0 kmh 30.13 in1020.3 mb - 0.00 in0.0 mm 0.00 in0.0 mm
08:40 PM 86.5°F30.3°C 54.0°F12.2°C 33% 2.3 mph NW3.7 kmh NW 2.3 mph3.7 kmh 30.14 in1020.7 mb - 0.00 in0.0 mm 0.00 in0.0 mm
08:50 PM 86.2°F30.1°C 53.7°F12.1°C 33% 1.2 mph NNW1.9 kmh NNW 3.5 mph5.6 kmh 30.14 in1020.7 mb - 0.00 in0.0 mm 0.00 in0.0 mm
09:00 PM 85.9°F29.9°C 53.4°F11.9°C 33% 1.2 mph NW1.9 kmh NW 3.5 mph5.6 kmh 30.14 in1020.7 mb - 0.00 in0.0 mm 0.00 in0.0 mm
09:10 PM 85.5°F29.7°C 53.2°F11.8°C 33% Calm Calm -- 30.14 in1020.7 mb - 0.00 in0.0 mm 0.00 in0.0 mm
09:20 PM 85.2°F29.6°C 53.7°F12.1°C 34% Calm Calm -- 30.14 in1020.7 mb - 0.00 in0.0 mm 0.00 in0.0 mm
09:30 PM 84.7°F29.3°C 54.0°F12.2°C 35% Calm Calm -- 30.14 in1020.7 mb - 0.00 in0.0 mm 0.00 in0.0 mm
09:40 PM 84.0°F28.9°C 52.6°F11.4°C 34% Calm Calm -- 30.14 in1020.7 mb - 0.00 in0.0 mm 0.00 in0.0 mm
09:50 PM 83.5°F28.6°C 53.0°F11.7°C 35% Calm Calm -- 30.14 in1020.7 mb - 0.00 in0.0 mm 0.00 in0.0 mm
10:00 PM 83.0°F28.3°C 54.8°F12.7°C 38% Calm Calm -- 30.14 in1020.7 mb - 0.00 in0.0 mm 0.00 in0.0 mm
10:10 PM 82.3°F27.9°C 56.3°F13.5°C 41% Calm Calm -- 30.14 in1020.7 mb - 0.00 in0.0 mm 0.00 in0.0 mm
10:20 PM 81.8°F27.7°C 61.3°F16.3°C 50% Calm Calm -- 30.14 in1020.7 mb - 0.00 in0.0 mm 0.00 in0.0 mm
10:30 PM 81.1°F27.3°C 63.9°F17.7°C 56% 2.3 mph NE3.7 kmh NE 3.5 mph5.6 kmh 30.14 in1020.7 mb - 0.00 in0.0 mm 0.00 in0.0 mm
10:40 PM 80.4°F26.9°C 64.3°F17.9°C 58% Calm Calm 2.3 mph3.7 kmh 30.14 in1020.7 mb - 0.00 in0.0 mm 0.00 in0.0 mm
10:50 PM 79.7°F26.5°C 64.1°F17.8°C 59% Calm Calm 1.2 mph1.9 kmh 30.14 in1020.7 mb - 0.00 in0.0 mm 0.00 in0.0 mm
11:00 PM 79.1°F26.2°C 63.1°F17.3°C 58% Calm Calm -- 30.14 in1020.7 mb - 0.00 in0.0 mm 0.00 in0.0 mm
11:10 PM 78.6°F25.9°C 62.1°F16.7°C 57% Calm Calm 1.2 mph1.9 kmh 30.13 in1020.3 mb - 0.00 in0.0 mm 0.00 in0.0 mm
11:20 PM 78.1°F25.6°C 61.1°F16.2°C 56% Calm Calm -- 30.13 in1020.3 mb - 0.00 in0.0 mm 0.00 in0.0 mm
11:30 PM 77.6°F25.3°C 60.2°F15.7°C 55% Calm Calm 1.2 mph1.9 kmh 30.13 in1020.3 mb - 0.00 in0.0 mm 0.00 in0.0 mm
11:40 PM 77.1°F25.1°C 59.7°F15.4°C 55% 1.2 mph N1.9 kmh N 2.3 mph3.7 kmh 30.13 in1020.3 mb - 0.00 in0.0 mm 0.00 in0.0 mm
11:50 PM 76.9°F24.9°C 59.5°F15.3°C 55% 1.2 mph NNW1.9 kmh NNW 2.3 mph3.7 kmh 30.13 in1020.3 mb - 0.00 in0.0 mm 0.00 in0.0 mm